Time;durP1;ratioP1;P1;durP2;ratioP2;P2;SDS_P1;SDS_P2;PMS_P1;PMS_P2;Temp;Humidity;BMP_temperature;BMP_pressure;BME280_temperature;BME280_humidity;BME280_pressure;Samples;Min_cycle;Max_cycle;Signal;HPM_P1;HPM_P2
2021/11/12 00:02:21;;;;;;;57.80;28.63;;;8.70;99.90;;;;;;5116217;28;20463;-71
2021/11/12 00:13:07;;;;;;;56.50;27.80;;;8.80;99.90;;;;;;5116003;28;20435;-69
2021/11/12 00:15:36;;;;;;;54.53;28.10;;;8.80;99.90;;;;;;5116592;28;20458;-69
2021/11/12 00:18:04;;;;;;;54.30;27.70;;;8.80;99.90;;;;;;5116149;28;20460;-69
2021/11/12 00:20:31;;;;;;;48.53;25.57;;;8.80;99.90;;;;;;5116326;28;20453;-69
2021/11/12 00:22:58;;;;;;;48.07;24.67;;;8.70;99.90;;;;;;5117201;28;20800;-69
2021/11/12 00:25:24;;;;;;;53.53;27.60;;;8.70;99.90;;;;;;5116127;28;20457;-68
2021/11/12 00:27:51;;;;;;;50.73;26.77;;;8.70;99.90;;;;;;5115454;28;20456;-69
2021/11/12 00:30:33;;;;;;;56.57;26.33;;;8.70;99.90;;;;;;5114687;28;20456;-69
2021/11/12 00:33:07;;;;;;;52.80;26.40;;;8.70;99.90;;;;;;5114881;28;20443;-69
2021/11/12 00:35:40;;;;;;;57.97;27.70;;;8.70;99.90;;;;;;5114590;28;20530;-69
2021/11/12 00:38:10;;;;;;;56.17;27.87;;;8.80;99.90;;;;;;5115724;28;20447;-69
2021/11/12 00:40:45;;;;;;;57.70;28.10;;;8.80;99.90;;;;;;5115162;28;20460;-69
2021/11/12 00:43:27;;;;;;;53.97;27.80;;;8.80;99.90;;;;;;5114903;28;20454;-69
2021/11/12 00:46:06;;;;;;;56.33;28.97;;;8.80;99.90;;;;;;5115139;28;20781;-69
2021/11/12 00:48:36;;;;;;;62.73;29.30;;;8.90;99.90;;;;;;5114504;28;20830;-69
2021/11/12 00:51:17;;;;;;;55.63;30.23;;;8.90;99.90;;;;;;5114950;28;20510;-69
2021/11/12 00:53:52;;;;;;;55.30;28.60;;;8.80;99.90;;;;;;5114589;28;20499;-69
2021/11/12 00:56:22;;;;;;;57.27;28.00;;;8.90;99.90;;;;;;5115039;28;20449;-69
2021/11/12 00:58:49;;;;;;;67.17;31.30;;;8.90;99.90;;;;;;5115097;28;20456;-69
2021/11/12 01:01:17;;;;;;;52.63;26.00;;;8.90;99.90;;;;;;5114570;28;20509;-69
2021/11/12 01:03:45;;;;;;;53.97;29.40;;;8.90;99.90;;;;;;5114514;28;20989;-69
2021/11/12 01:06:13;;;;;;;55.60;29.70;;;8.90;99.90;;;;;;5114993;28;20911;-69
2021/11/12 01:08:39;;;;;;;45.20;24.77;;;8.90;99.90;;;;;;5114685;28;20454;-69
2021/11/12 01:11:08;;;;;;;49.80;27.00;;;9.00;99.90;;;;;;5114429;28;20996;-69
2021/11/12 01:13:35;;;;;;;53.50;27.13;;;9.00;99.90;;;;;;5114814;28;20580;-69
2021/11/12 01:16:03;;;;;;;51.57;24.80;;;9.00;99.90;;;;;;5114941;28;20461;-69
2021/11/12 01:18:29;;;;;;;53.67;26.90;;;9.00;99.90;;;;;;5114995;28;20453;-69
2021/11/12 01:20:56;;;;;;;52.23;26.20;;;9.00;99.90;;;;;;5114472;28;20450;-69
2021/11/12 01:23:24;;;;;;;50.83;26.83;;;9.00;99.90;;;;;;5114830;28;20453;-69
2021/11/12 01:25:51;;;;;;;51.23;26.33;;;9.00;99.90;;;;;;5114704;28;20453;-69
2021/11/12 01:28:19;;;;;;;44.27;25.13;;;8.90;99.90;;;;;;5114681;28;20452;-69
2021/11/12 01:30:45;;;;;;;56.53;27.20;;;9.00;99.90;;;;;;5114009;28;20503;-69
2021/11/12 01:33:12;;;;;;;46.23;24.83;;;9.00;99.90;;;;;;5114656;28;20459;-69
2021/11/12 01:35:39;;;;;;;52.47;26.17;;;9.00;99.90;;;;;;5114626;28;20513;-69
2021/11/12 01:38:06;;;;;;;54.87;28.37;;;9.00;99.90;;;;;;5114457;28;20665;-69
2021/11/12 01:40:35;;;;;;;55.30;27.13;;;9.00;99.90;;;;;;5114684;28;20496;-69
2021/11/12 01:43:08;;;;;;;52.90;27.13;;;9.00;99.90;;;;;;5114563;28;20455;-69
2021/11/12 01:48:56;;;;;;;50.70;25.40;;;9.10;99.90;;;;;;5118298;28;20570;-69
2021/11/12 01:51:27;;;;;;;49.00;27.10;;;9.10;99.90;;;;;;5119155;28;20484;-69
2021/11/12 01:54:08;;;;;;;53.50;27.97;;;9.10;99.90;;;;;;5118835;28;20753;-69
2021/11/12 01:56:39;;;;;;;50.90;27.10;;;9.10;99.90;;;;;;5118289;28;20822;-69
2021/11/12 01:59:12;;;;;;;52.27;25.60;;;9.10;99.90;;;;;;5118336;28;20474;-69
2021/11/12 02:01:46;;;;;;;50.30;27.63;;;9.10;99.90;;;;;;5117693;28;20478;-69
2021/11/12 02:04:16;;;;;;;49.03;26.70;;;9.20;99.90;;;;;;5118394;28;20763;-69
2021/11/12 02:06:44;;;;;;;48.43;26.83;;;9.20;99.90;;;;;;5117621;28;20470;-69
2021/11/12 02:09:16;;;;;;;57.73;29.57;;;9.20;99.90;;;;;;5117741;28;20457;-69
2021/11/12 02:11:45;;;;;;;54.50;26.33;;;9.10;99.90;;;;;;5118065;28;20556;-69
2021/11/12 02:14:13;;;;;;;55.03;28.40;;;9.10;99.90;;;;;;5117919;28;20738;-69
2021/11/12 02:16:43;;;;;;;50.43;26.53;;;9.10;99.90;;;;;;5117740;27;20453;-69
2021/11/12 02:19:10;;;;;;;51.33;26.90;;;9.10;99.90;;;;;;5117751;27;20466;-69
2021/11/12 02:21:47;;;;;;;48.90;26.30;;;9.10;99.90;;;;;;5117818;28;20603;-69
2021/11/12 02:24:15;;;;;;;59.37;31.30;;;9.10;99.90;;;;;;5117445;28;20489;-69
2021/11/12 02:26:45;;;;;;;52.67;27.93;;;9.10;99.90;;;;;;5117726;27;20489;-69
2021/11/12 02:29:14;;;;;;;46.03;25.53;;;9.10;99.90;;;;;;5117121;28;20462;-69
2021/11/12 02:31:40;;;;;;;51.97;27.70;;;9.20;99.90;;;;;;5117312;28;20966;-69
2021/11/12 02:34:11;;;;;;;53.20;28.97;;;9.20;99.90;;;;;;5117365;28;20461;-69
2021/11/12 02:36:40;;;;;;;51.07;26.20;;;9.20;99.90;;;;;;5117548;28;20452;-69
2021/11/12 02:39:09;;;;;;;48.90;25.40;;;9.20;99.90;;;;;;5116965;27;20548;-69
2021/11/12 02:41:38;;;;;;;48.37;25.70;;;9.20;99.90;;;;;;5117420;28;20456;-68
2021/11/12 02:44:05;;;;;;;48.63;25.30;;;9.20;99.90;;;;;;5117153;28;20462;-68
2021/11/12 02:46:33;;;;;;;52.90;26.40;;;9.20;99.90;;;;;;5117222;28;20514;-69
2021/11/12 02:49:00;;;;;;;45.80;24.23;;;9.20;99.90;;;;;;5117221;27;20455;-69
2021/11/12 02:51:30;;;;;;;50.90;26.43;;;9.20;99.90;;;;;;5116892;28;20474;-69
2021/11/12 02:54:01;;;;;;;48.60;25.57;;;9.30;99.90;;;;;;5117204;28;20437;-69
2021/11/12 02:56:30;;;;;;;38.83;22.63;;;9.30;99.90;;;;;;5116020;28;20449;-69
2021/11/12 02:59:03;;;;;;;44.80;22.50;;;9.30;99.90;;;;;;5117101;28;20510;-68
2021/11/12 03:01:32;;;;;;;47.30;24.47;;;9.20;99.90;;;;;;5116797;28;20516;-69
2021/11/12 03:03:58;;;;;;;45.63;22.97;;;9.20;99.90;;;;;;5116526;28;20860;-69
2021/11/12 03:06:26;;;;;;;44.67;24.10;;;9.20;99.90;;;;;;5116694;28;20458;-69
2021/11/12 03:08:57;;;;;;;41.67;23.37;;;9.10;99.90;;;;;;5116895;28;20826;-69
2021/11/12 03:11:25;;;;;;;44.77;22.80;;;9.10;99.90;;;;;;5116607;28;20560;-69
2021/11/12 03:13:52;;;;;;;44.67;24.70;;;9.10;99.90;;;;;;5116571;28;20461;-70
2021/11/12 03:16:20;;;;;;;40.37;20.60;;;9.10;99.90;;;;;;5116663;28;20794;-69
2021/11/12 03:18:47;;;;;;;45.00;22.00;;;9.20;99.90;;;;;;5116548;28;20458;-69
2021/11/12 03:21:17;;;;;;;42.30;22.17;;;9.10;99.90;;;;;;5116546;28;20456;-69
2021/11/12 03:23:49;;;;;;;46.73;24.40;;;9.10;99.90;;;;;;5116207;28;20463;-69
2021/11/12 03:26:24;;;;;;;48.50;23.70;;;9.10;99.90;;;;;;5116353;28;20497;-69
2021/11/12 04:02:04;;;;;;;48.93;22.73;;;9.10;99.90;;;;;;5115709;28;20505;-69
2021/11/12 04:04:39;;;;;;;48.40;23.80;;;9.20;99.90;;;;;;5115567;28;20445;-69
2021/11/12 04:07:20;;;;;;;44.07;23.10;;;9.20;99.90;;;;;;5116045;28;20468;-69
2021/11/12 04:18:12;;;;;;;50.73;24.30;;;9.10;99.90;;;;;;5115504;28;20491;-69
2021/11/12 04:20:55;;;;;;;47.97;25.10;;;9.10;99.90;;;;;;5115907;28;20859;-69
2021/11/12 04:40:07;;;;;;;48.83;23.47;;;9.20;99.90;;;;;;5115250;28;21035;-69
2021/11/12 05:10:10;;;;;;;41.97;21.23;;;9.00;99.90;;;;;;5114884;28;20453;-69
2021/11/12 05:13:02;;;;;;;43.97;22.33;;;9.00;99.90;;;;;;5114727;28;20496;-70
2021/11/12 05:35:07;;;;;;;46.77;21.50;;;8.90;99.90;;;;;;5118533;28;20928;-69
2021/11/12 05:56:43;;;;;;;47.03;22.83;;;9.10;99.90;;;;;;5118023;28;20507;-70
2021/11/12 05:59:12;;;;;;;49.83;24.00;;;9.10;99.90;;;;;;5118202;27;20455;-69
2021/11/12 06:01:39;;;;;;;42.70;21.00;;;9.10;99.90;;;;;;5117524;28;20569;-68
2021/11/12 06:04:07;;;;;;;45.37;21.93;;;9.10;99.90;;;;;;5118100;28;20544;-68
2021/11/12 06:06:34;;;;;;;46.50;22.80;;;9.20;99.90;;;;;;5117869;28;20763;-68
2021/11/12 06:09:01;;;;;;;49.87;21.57;;;9.20;99.90;;;;;;5117901;28;20453;-68
2021/11/12 06:11:28;;;;;;;47.50;23.77;;;9.20;99.90;;;;;;5117927;28;20871;-68
2021/11/12 06:13:58;;;;;;;52.10;23.67;;;9.20;99.90;;;;;;5117770;28;20445;-69
2021/11/12 06:16:25;;;;;;;65.10;25.70;;;9.10;99.90;;;;;;5117547;28;20913;-68
2021/11/12 06:18:53;;;;;;;61.27;23.97;;;9.10;99.90;;;;;;5117598;28;20450;-68
2021/11/12 06:21:19;;;;;;;66.10;24.47;;;9.00;99.90;;;;;;5118037;28;20478;-69
2021/11/12 06:23:46;;;;;;;68.10;24.43;;;8.90;99.90;;;;;;5117811;28;20475;-69
2021/11/12 06:26:13;;;;;;;81.07;26.23;;;8.80;99.90;;;;;;5117880;28;20452;-69
2021/11/12 06:28:40;;;;;;;72.97;24.40;;;8.70;99.90;;;;;;5117431;28;20467;-69
2021/11/12 06:31:09;;;;;;;74.87;26.90;;;8.70;99.90;;;;;;5117361;28;20483;-69
2021/11/12 06:33:36;;;;;;;80.30;26.97;;;8.70;99.90;;;;;;5117476;28;20487;-69
2021/11/12 06:36:03;;;;;;;91.80;28.07;;;8.50;99.90;;;;;;5117551;28;20782;-69
2021/11/12 06:38:31;;;;;;;81.87;28.17;;;8.60;99.90;;;;;;5117426;28;20459;-70
2021/11/12 06:41:02;;;;;;;86.40;28.50;;;8.60;99.90;;;;;;5117512;28;20461;-69
2021/11/12 06:43:37;;;;;;;92.90;26.10;;;8.60;99.90;;;;;;5117427;28;20602;-69
2021/11/12 06:51:36;;;;;;;100.40;28.33;;;8.50;99.90;;;;;;5116733;28;20512;-69
2021/11/12 06:54:06;;;;;;;89.13;28.10;;;8.40;99.90;;;;;;5116980;28;20964;-69
2021/11/12 06:56:33;;;;;;;86.83;26.60;;;8.40;99.90;;;;;;5118050;27;20541;-69
2021/11/12 06:59:00;;;;;;;86.57;29.03;;;8.30;99.90;;;;;;5116827;28;20507;-69
2021/11/12 07:01:27;;;;;;;93.50;26.00;;;8.30;99.90;;;;;;5116524;27;20484;-69
2021/11/12 07:03:57;;;;;;;85.63;26.87;;;8.40;99.90;;;;;;5116995;28;20884;-69
2021/11/12 07:06:24;;;;;;;92.37;29.73;;;8.40;99.90;;;;;;5116350;28;20464;-69
2021/11/12 07:08:52;;;;;;;89.03;25.07;;;8.40;99.90;;;;;;5117296;28;20455;-69
2021/11/12 07:11:20;;;;;;;88.60;27.03;;;8.40;99.90;;;;;;5117296;28;20478;-68
2021/11/12 07:13:47;;;;;;;76.10;24.70;;;8.40;99.90;;;;;;5116632;28;20484;-68
2021/11/12 07:16:14;;;;;;;92.10;26.53;;;8.40;99.90;;;;;;5116592;28;20818;-68
2021/11/12 07:18:41;;;;;;;89.00;27.53;;;8.40;99.90;;;;;;5116655;28;20564;-69
2021/11/12 07:21:09;;;;;;;82.13;27.77;;;8.40;99.90;;;;;;5116649;28;20460;-68
2021/11/12 07:23:36;;;;;;;95.50;28.97;;;8.30;99.90;;;;;;5116492;28;20905;-68
2021/11/12 07:26:03;;;;;;;88.37;29.63;;;8.40;99.90;;;;;;5116630;28;20920;-68
2021/11/12 07:28:30;;;;;;;82.03;29.27;;;8.40;99.90;;;;;;5116737;28;20901;-69
2021/11/12 07:30:57;;;;;;;91.07;30.67;;;8.30;99.90;;;;;;5116421;28;20467;-68
2021/11/12 07:33:24;;;;;;;90.53;30.83;;;8.30;99.90;;;;;;5116415;28;20480;-69
2021/11/12 07:35:53;;;;;;;88.97;30.17;;;8.30;99.90;;;;;;5116340;28;20456;-69
2021/11/12 07:38:24;;;;;;;93.00;30.40;;;8.30;99.90;;;;;;5115910;28;20455;-68
2021/11/12 07:41:14;;;;;;;74.00;27.67;;;8.30;99.90;;;;;;5116355;28;20877;-69
2021/11/12 07:46:37;;;;;;;84.50;27.07;;;8.50;99.90;;;;;;5115546;28;20431;-69
2021/11/12 07:49:08;;;;;;;70.67;26.10;;;8.60;99.90;;;;;;5116144;28;20448;-69
2021/11/12 07:51:36;;;;;;;71.57;27.40;;;8.60;99.90;;;;;;5115938;28;20444;-69
2021/11/12 07:54:04;;;;;;;64.90;24.73;;;8.60;99.90;;;;;;5115822;28;20462;-69
2021/11/12 07:56:32;;;;;;;56.13;24.40;;;8.60;99.90;;;;;;5115510;28;20506;-69
2021/11/12 07:58:59;;;;;;;56.67;23.00;;;8.70;99.90;;;;;;5115418;28;20452;-69
2021/11/12 08:01:26;;;;;;;74.27;28.33;;;8.70;99.90;;;;;;5115500;28;20476;-69
2021/11/12 08:03:55;;;;;;;52.10;22.20;;;8.60;99.90;;;;;;5115621;28;20460;-68
2021/11/12 08:06:24;;;;;;;55.57;24.57;;;8.60;99.90;;;;;;5115685;28;20836;-68
2021/11/12 08:08:55;;;;;;;54.53;21.90;;;8.70;99.90;;;;;;5115653;28;20455;-69
2021/11/12 08:11:29;;;;;;;52.80;24.97;;;8.70;99.90;;;;;;5115792;28;20823;-68
2021/11/12 08:13:59;;;;;;;57.47;25.13;;;8.80;99.90;;;;;;5115314;28;20465;-68
2021/11/12 08:16:38;;;;;;;54.50;23.53;;;8.80;99.90;;;;;;5115935;28;20770;-69
2021/11/12 08:19:07;;;;;;;59.27;25.60;;;8.90;99.90;;;;;;5114855;28;20448;-69
2021/11/12 08:21:39;;;;;;;56.63;25.70;;;8.90;99.90;;;;;;5115371;28;20510;-68
2021/11/12 08:24:10;;;;;;;55.23;25.30;;;8.90;99.90;;;;;;5115557;28;20505;-69
2021/11/12 08:26:55;;;;;;;55.60;24.23;;;9.00;99.90;;;;;;5115200;28;20444;-68
2021/11/12 08:29:33;;;;;;;45.87;23.20;;;9.10;99.90;;;;;;5115254;28;20445;-68
2021/11/12 08:34:55;;;;;;;58.73;30.10;;;9.20;99.90;;;;;;5097480;28;20540;-69
2021/11/12 08:37:31;;;;;;;48.77;22.70;;;9.20;99.90;;;;;;5115158;28;20437;-68
2021/11/12 08:40:07;;;;;;;41.40;21.50;;;9.10;99.90;;;;;;5115032;28;20896;-69
2021/11/12 08:42:38;;;;;;;57.17;24.00;;;9.10;99.90;;;;;;5115233;28;20490;-69
2021/11/12 08:45:08;;;;;;;49.33;23.90;;;9.00;99.90;;;;;;5114897;28;20472;-67
2021/11/12 08:47:37;;;;;;;56.23;24.90;;;8.90;99.90;;;;;;5114995;28;20447;-69
2021/11/12 08:50:05;;;;;;;56.17;26.13;;;8.90;99.90;;;;;;5115238;28;20483;-68
2021/11/12 08:52:32;;;;;;;55.97;27.27;;;9.00;99.90;;;;;;5115137;28;20452;-68
2021/11/12 08:55:04;;;;;;;56.70;26.43;;;9.00;99.90;;;;;;5116411;28;20917;-68
2021/11/12 08:57:30;;;;;;;66.70;26.80;;;9.10;99.90;;;;;;5119921;28;20443;-69
2021/11/12 08:59:58;;;;;;;59.97;26.10;;;9.10;99.90;;;;;;5119297;28;20453;-68
2021/11/12 09:02:27;;;;;;;62.43;28.17;;;9.10;99.90;;;;;;5119320;28;20876;-69
2021/11/12 09:04:55;;;;;;;54.93;24.73;;;9.00;99.90;;;;;;5119410;28;20506;-69
2021/11/12 09:07:23;;;;;;;51.57;23.50;;;9.10;99.90;;;;;;5119416;28;20453;-69
2021/11/12 09:09:55;;;;;;;51.90;24.10;;;9.20;99.90;;;;;;5118977;28;20455;-69
2021/11/12 09:12:23;;;;;;;45.97;21.77;;;9.30;99.90;;;;;;5119247;28;20437;-69
2021/11/12 09:14:51;;;;;;;57.67;24.40;;;9.40;99.90;;;;;;5119029;28;20445;-69
2021/11/12 09:17:21;;;;;;;48.60;23.07;;;9.40;99.90;;;;;;5118702;28;20460;-69
2021/11/12 09:19:50;;;;;;;48.23;22.60;;;9.40;99.90;;;;;;5118770;28;20935;-68
2021/11/12 09:22:20;;;;;;;46.57;23.67;;;9.50;99.90;;;;;;5118405;28;20954;-68
2021/11/12 09:24:48;;;;;;;43.93;20.80;;;9.50;99.90;;;;;;5118529;28;20942;-68
2021/11/12 09:27:16;;;;;;;39.23;18.90;;;9.50;99.90;;;;;;5118737;28;20452;-69
2021/11/12 09:29:44;;;;;;;41.37;18.80;;;9.40;99.90;;;;;;5118892;28;20450;-69
2021/11/12 09:32:11;;;;;;;36.97;18.10;;;9.40;99.90;;;;;;5118753;28;20731;-68
2021/11/12 09:34:40;;;;;;;36.77;18.67;;;9.50;99.90;;;;;;5118022;28;20942;-68
2021/11/12 09:37:09;;;;;;;33.37;17.03;;;9.60;99.90;;;;;;5118334;28;20462;-69
2021/11/12 09:39:36;;;;;;;43.20;20.17;;;9.70;99.90;;;;;;5118420;28;20796;-69
2021/11/12 09:42:04;;;;;;;42.57;18.63;;;9.90;99.90;;;;;;5117986;28;20921;-68
2021/11/12 09:44:32;;;;;;;40.60;19.70;;;9.90;99.90;;;;;;5118416;28;20449;-68
2021/11/12 09:46:59;;;;;;;31.20;15.97;;;10.10;99.90;;;;;;5118859;27;20457;-68
2021/11/12 09:49:26;;;;;;;40.07;18.63;;;10.20;99.90;;;;;;5118028;28;20772;-68
2021/11/12 09:51:55;;;;;;;40.17;20.27;;;10.40;99.90;;;;;;5118505;27;20458;-67
2021/11/12 09:54:22;;;;;;;32.90;17.73;;;10.40;99.90;;;;;;5117653;28;20957;-68
2021/11/12 09:56:49;;;;;;;34.13;17.97;;;10.40;99.90;;;;;;5117980;28;20933;-68
2021/11/12 09:59:16;;;;;;;35.23;17.20;;;10.20;99.90;;;;;;5118259;28;20456;-67
2021/11/12 10:01:43;;;;;;;38.03;17.67;;;10.20;99.90;;;;;;5117904;28;20498;-68
2021/11/12 10:04:10;;;;;;;29.30;16.30;;;10.10;99.90;;;;;;5118266;28;20809;-69
2021/11/12 10:06:40;;;;;;;34.90;16.30;;;10.00;99.90;;;;;;5117729;27;20452;-69
2021/11/12 10:09:16;;;;;;;33.57;17.67;;;10.10;99.90;;;;;;5117953;28;20518;-69
2021/11/12 10:11:50;;;;;;;36.30;20.20;;;10.20;99.90;;;;;;5117914;28;20455;-68
2021/11/12 10:14:26;;;;;;;31.27;17.83;;;10.20;99.90;;;;;;5117865;28;20566;-68
2021/11/12 10:16:57;;;;;;;33.87;17.03;;;10.30;99.90;;;;;;5117568;28;20452;-68
2021/11/12 10:19:25;;;;;;;29.30;17.20;;;10.40;99.90;;;;;;5117834;27;20488;-68
2021/11/12 10:21:54;;;;;;;30.23;17.77;;;10.30;99.90;;;;;;5117783;28;20452;-68
2021/11/12 10:24:28;;;;;;;28.23;16.80;;;10.20;99.90;;;;;;5118218;27;20460;-67
2021/11/12 10:26:57;;;;;;;31.60;17.00;;;10.20;99.90;;;;;;5117534;27;20454;-69
2021/11/12 10:29:26;;;;;;;31.73;17.53;;;10.30;99.90;;;;;;5117337;28;20494;-69
2021/11/12 10:31:56;;;;;;;28.60;16.50;;;10.20;99.90;;;;;;5117370;28;20465;-69
2021/11/12 10:34:25;;;;;;;36.63;16.73;;;10.20;99.90;;;;;;5117452;28;20498;-69
2021/11/12 10:36:58;;;;;;;23.80;14.03;;;10.10;99.90;;;;;;5117497;28;20513;-69
2021/11/12 10:39:29;;;;;;;21.70;13.40;;;10.00;99.90;;;;;;5117385;28;20470;-68
2021/11/12 10:41:57;;;;;;;26.37;14.07;;;9.80;99.90;;;;;;5116813;28;20450;-68
2021/11/12 10:44:24;;;;;;;24.83;14.00;;;9.90;99.90;;;;;;5117290;28;20449;-70
2021/11/12 10:46:51;;;;;;;21.07;14.20;;;10.00;99.90;;;;;;5116848;28;20508;-69
2021/11/12 10:49:32;;;;;;;21.00;13.73;;;10.00;99.90;;;;;;5117429;28;20457;-69
2021/11/12 10:52:02;;;;;;;23.50;13.80;;;9.90;99.90;;;;;;5117054;28;20554;-69
2021/11/12 10:54:41;;;;;;;22.83;14.17;;;9.90;99.90;;;;;;5116905;28;20476;-69
2021/11/12 10:57:10;;;;;;;24.13;14.30;;;9.90;99.90;;;;;;5117252;28;20442;-68
2021/11/12 10:59:53;;;;;;;20.77;13.40;;;9.90;99.90;;;;;;5117433;28;20466;-69
2021/11/12 11:02:26;;;;;;;24.80;14.60;;;9.80;99.90;;;;;;5117274;28;20519;-68
2021/11/12 11:04:53;;;;;;;20.10;13.77;;;9.80;99.90;;;;;;5116802;28;20451;-68
2021/11/12 11:07:22;;;;;;;23.27;15.27;;;9.90;99.90;;;;;;5116301;28;20455;-69
2021/11/12 11:09:51;;;;;;;20.30;13.40;;;10.00;99.90;;;;;;5117600;28;20458;-69
2021/11/12 11:12:41;;;;;;;21.87;13.70;;;10.10;99.90;;;;;;5116778;28;20455;-68
2021/11/12 11:15:23;;;;;;;20.53;14.20;;;10.10;99.90;;;;;;5116812;28;20808;-69
2021/11/12 11:18:03;;;;;;;22.43;15.27;;;10.10;99.90;;;;;;5116058;28;20457;-69
2021/11/12 11:20:32;;;;;;;21.70;14.30;;;10.10;99.90;;;;;;5116767;28;20893;-70
2021/11/12 11:23:00;;;;;;;19.73;14.70;;;10.10;99.90;;;;;;5116822;28;20498;-71
2021/11/12 11:25:31;;;;;;;19.17;14.50;;;10.00;99.90;;;;;;5116356;28;20451;-69
2021/11/12 11:28:00;;;;;;;22.70;15.87;;;10.00;99.90;;;;;;5116871;28;20454;-68
2021/11/12 11:30:27;;;;;;;21.23;15.00;;;10.10;99.90;;;;;;5116517;27;20460;-68
2021/11/12 11:32:54;;;;;;;18.83;14.67;;;10.30;99.90;;;;;;5116492;28;20464;-68
2021/11/12 11:35:22;;;;;;;18.83;14.13;;;10.30;99.90;;;;;;5115676;28;20491;-69
2021/11/12 11:37:53;;;;;;;21.90;15.47;;;10.40;99.90;;;;;;5115777;28;20467;-69
2021/11/12 11:40:20;;;;;;;27.47;21.30;;;10.40;99.90;;;;;;5116299;28;20838;-68
2021/11/12 11:42:48;;;;;;;30.20;19.97;;;10.50;99.90;;;;;;5116010;28;20567;-69
2021/11/12 11:45:16;;;;;;;25.70;19.80;;;10.60;99.90;;;;;;5115739;28;20556;-68
2021/11/12 11:47:44;;;;;;;29.60;21.87;;;10.70;99.90;;;;;;5116076;28;20472;-68
2021/11/12 11:50:35;;;;;;;21.73;14.17;;;10.70;99.90;;;;;;5115920;28;20484;-68
2021/11/12 11:53:21;;;;;;;25.93;15.07;;;10.70;99.90;;;;;;5100619;28;20459;-68
2021/11/12 11:55:48;;;;;;;22.17;16.23;;;10.80;99.90;;;;;;5116201;28;20468;-69
2021/11/12 11:58:32;;;;;;;29.43;20.90;;;11.00;99.90;;;;;;5115410;28;20466;-68
2021/11/12 12:01:34;;;;;;;18.80;14.70;;;11.10;99.90;;;;;;5113845;28;20573;-68
2021/11/12 12:04:39;;;;;;;21.30;15.13;;;11.20;99.90;;;;;;5111485;27;20461;-69
2021/11/12 12:07:17;;;;;;;17.43;13.30;;;11.30;99.90;;;;;;5115577;28;20429;-69
2021/11/12 12:09:48;;;;;;;18.77;14.57;;;11.30;99.90;;;;;;5116210;28;20750;-68
2021/11/12 12:12:43;;;;;;;15.60;12.33;;;11.40;99.90;;;;;;5116116;28;20437;-70
2021/11/12 12:15:46;;;;;;;16.77;11.30;;;11.40;99.90;;;;;;5115603;28;20944;-68
2021/11/12 12:18:21;;;;;;;15.07;10.33;;;11.30;99.90;;;;;;5116260;28;20437;-68
2021/11/12 12:31:07;;;;;;;15.20;11.00;;;11.10;99.90;;;;;;5115324;28;20918;-69
2021/11/12 12:37:00;;;;;;;12.80;10.07;;;11.10;99.90;;;;;;5115798;28;20428;-68
2021/11/12 13:22:39;;;;;;;10.80;8.73;;;10.60;99.90;;;;;;5174647;27;20753;-68
2021/11/12 13:25:09;;;;;;;18.33;13.17;;;10.70;99.90;;;;;;5173923;27;20461;-69
2021/11/12 13:27:36;;;;;;;9.57;8.03;;;10.70;99.90;;;;;;5174997;27;20525;-69
2021/11/12 13:30:04;;;;;;;17.77;12.10;;;10.70;99.90;;;;;;5173706;27;20457;-69
2021/11/12 13:32:36;;;;;;;11.23;8.30;;;10.70;99.90;;;;;;5173922;27;20967;-69
2021/11/12 13:35:05;;;;;;;9.67;7.30;;;10.70;99.90;;;;;;5174119;27;20715;-68
2021/11/12 13:37:32;;;;;;;11.13;7.83;;;10.70;99.90;;;;;;5174323;27;20550;-69
2021/11/12 13:40:11;;;;;;;9.17;7.27;;;10.80;99.90;;;;;;5173966;27;20451;-69
2021/11/12 13:42:42;;;;;;;8.07;6.50;;;10.70;99.90;;;;;;5174248;27;20818;-69
2021/11/12 13:45:15;;;;;;;10.87;6.30;;;10.60;99.90;;;;;;5174103;27;20541;-68
2021/11/12 13:47:42;;;;;;;9.80;7.00;;;10.50;99.90;;;;;;5173562;27;20510;-68
2021/11/12 13:50:11;;;;;;;10.13;6.93;;;10.40;99.90;;;;;;5173823;27;20530;-68
2021/11/12 13:52:42;;;;;;;8.77;7.37;;;10.40;99.90;;;;;;5173634;27;20452;-69
2021/11/12 13:55:12;;;;;;;10.47;8.30;;;10.30;99.90;;;;;;5168772;27;20471;-68
2021/11/12 13:57:45;;;;;;;9.27;6.90;;;10.20;99.90;;;;;;5159423;27;20500;-68
2021/11/12 14:00:17;;;;;;;12.57;7.00;;;10.30;99.90;;;;;;5159215;27;20439;-68
2021/11/12 14:02:51;;;;;;;9.23;7.43;;;10.20;99.90;;;;;;5159881;27;20450;-68
2021/11/12 14:05:20;;;;;;;12.50;7.40;;;10.20;99.90;;;;;;5159449;27;20488;-68
2021/11/12 14:07:47;;;;;;;8.73;7.07;;;10.20;99.90;;;;;;5159117;27;20515;-69
2021/11/12 14:10:16;;;;;;;8.73;6.00;;;10.20;99.90;;;;;;5159712;27;20454;-68
2021/11/12 14:12:53;;;;;;;7.63;5.23;;;10.20;99.90;;;;;;5159129;27;20468;-68
2021/11/12 14:15:26;;;;;;;9.90;6.07;;;10.20;99.90;;;;;;5159240;27;20865;-68
2021/11/12 14:18:16;;;;;;;8.23;6.30;;;10.20;99.90;;;;;;5159551;27;20437;-68
2021/11/12 14:20:54;;;;;;;9.33;6.50;;;10.00;99.90;;;;;;5160271;27;20551;-67
2021/11/12 14:23:23;;;;;;;12.30;8.10;;;10.00;99.90;;;;;;5159503;27;20494;-68
2021/11/12 14:28:47;;;;;;;10.20;7.80;;;9.90;99.90;;;;;;5160034;27;20446;-68
2021/11/12 14:31:35;;;;;;;10.47;8.00;;;9.90;99.90;;;;;;5159583;27;20830;-69
2021/11/12 14:34:18;;;;;;;9.00;7.00;;;9.90;99.90;;;;;;5159373;27;20450;-69
2021/11/12 14:36:56;;;;;;;12.57;8.50;;;9.90;99.90;;;;;;5159087;27;20528;-68
2021/11/12 14:45:02;;;;;;;17.63;9.30;;;9.80;99.90;;;;;;5159204;27;20478;-69
2021/11/12 14:47:40;;;;;;;13.13;9.20;;;9.80;99.90;;;;;;5159539;27;20439;-68
2021/11/12 14:50:24;;;;;;;11.70;8.90;;;9.80;99.90;;;;;;5159837;27;20449;-69
2021/11/12 14:53:26;;;;;;;9.83;8.43;;;9.80;99.90;;;;;;5159786;27;20441;-68
2021/11/12 14:56:01;;;;;;;13.50;9.30;;;9.80;99.90;;;;;;5159778;27;20504;-68
2021/11/12 14:58:29;;;;;;;13.63;10.23;;;9.70;99.90;;;;;;5159526;27;20784;-68
2021/11/12 15:01:04;;;;;;;13.50;9.20;;;9.70;99.90;;;;;;5160127;27;20451;-68
2021/11/12 15:03:30;;;;;;;13.50;10.07;;;9.70;99.90;;;;;;5159808;27;20737;-69
2021/11/12 15:05:57;;;;;;;17.50;10.33;;;9.60;99.90;;;;;;5159385;27;20933;-69
2021/11/12 15:08:27;;;;;;;14.27;10.33;;;9.60;99.90;;;;;;5158948;27;20462;-68
2021/11/12 15:10:55;;;;;;;15.53;10.30;;;9.60;99.90;;;;;;5159067;27;20787;-69
2021/11/12 15:13:23;;;;;;;16.93;12.73;;;9.60;99.90;;;;;;5159094;27;20452;-68
2021/11/12 15:15:51;;;;;;;16.70;10.73;;;9.70;99.90;;;;;;5158852;27;20447;-70
2021/11/12 15:18:19;;;;;;;15.77;10.90;;;9.70;99.90;;;;;;5158328;27;20512;-68
2021/11/12 15:20:46;;;;;;;16.20;10.67;;;9.80;99.90;;;;;;5158874;27;20609;-69
2021/11/12 15:23:29;;;;;;;23.80;16.90;;;9.80;99.90;;;;;;5158501;27;20926;-69
2021/11/12 15:26:12;;;;;;;18.43;13.90;;;9.80;99.90;;;;;;5158019;27;20501;-68
2021/11/12 15:28:51;;;;;;;12.90;10.60;;;9.80;99.90;;;;;;5159119;27;20442;-68
2021/11/12 15:31:22;;;;;;;14.87;10.60;;;9.80;99.90;;;;;;5158756;27;20551;-68
2021/11/12 15:33:55;;;;;;;14.00;10.57;;;9.80;99.90;;;;;;5158984;27;20885;-68
2021/11/12 15:36:22;;;;;;;15.70;12.10;;;9.70;99.90;;;;;;5158684;27;20437;-69
2021/11/12 15:38:52;;;;;;;14.87;10.87;;;9.60;99.90;;;;;;5158022;27;20928;-69
2021/11/12 15:41:38;;;;;;;14.70;11.40;;;9.50;99.90;;;;;;5157805;27;20887;-69
2021/11/12 15:44:12;;;;;;;14.70;10.50;;;9.60;99.90;;;;;;5157373;27;20490;-68
2021/11/12 15:46:42;;;;;;;16.63;11.67;;;9.60;99.90;;;;;;5157450;27;20889;-69
2021/11/12 15:49:08;;;;;;;16.30;11.50;;;9.70;99.90;;;;;;5157866;27;20520;-68
2021/11/12 15:51:38;;;;;;;14.30;10.67;;;9.70;99.90;;;;;;5157349;27;20455;-69
2021/11/12 15:54:20;;;;;;;15.13;10.10;;;9.80;99.90;;;;;;5157454;27;20454;-69
2021/11/12 15:57:06;;;;;;;12.50;9.80;;;9.80;99.90;;;;;;5157992;27;20522;-69
2021/11/12 15:59:41;;;;;;;13.67;10.90;;;9.80;99.90;;;;;;5157687;27;20820;-69
2021/11/12 16:02:35;;;;;;;16.20;11.30;;;9.70;99.90;;;;;;5157272;27;20451;-69
2021/11/12 16:05:23;;;;;;;14.00;11.00;;;9.80;99.90;;;;;;5157812;27;20487;-68
2021/11/12 16:13:41;;;;;;;16.00;11.00;;;9.60;99.90;;;;;;5157473;27;20479;-69
2021/11/12 16:16:43;;;;;;;15.67;10.00;;;9.60;99.90;;;;;;5157546;27;20450;-69
2021/11/12 16:19:18;;;;;;;16.97;11.80;;;9.60;99.90;;;;;;5157219;27;20498;-68
2021/11/12 16:22:03;;;;;;;17.50;12.47;;;9.60;99.90;;;;;;5157610;27;20431;-68
2021/11/12 16:27:23;;;;;;;16.07;11.13;;;9.50;99.90;;;;;;5121497;27;20448;-68
2021/11/12 16:29:53;;;;;;;18.77;11.10;;;9.60;99.90;;;;;;5157901;27;20498;-68
2021/11/12 16:32:25;;;;;;;15.20;11.00;;;9.60;99.90;;;;;;5157086;27;20482;-68
2021/11/12 16:34:58;;;;;;;13.67;10.17;;;9.60;99.90;;;;;;5156830;27;20434;-68
2021/11/12 16:37:26;;;;;;;15.80;10.83;;;9.50;99.90;;;;;;5156980;27;20556;-68
2021/11/12 16:39:56;;;;;;;17.10;11.77;;;9.50;99.90;;;;;;5156814;27;20548;-69